Time;durP1;ratioP1;P1;durP2;ratioP2;P2;SDS_P1;SDS_P2;PMS_P1;PMS_P2;Temp;Humidity;BMP_temperature;BMP_pressure;BME280_temperature;BME280_humidity;BME280_pressure;Samples;Min_cycle;Max_cycle;Signal;HPM_P1;HPM_P2
2023/06/24 00:01:26;;;;;;;4.30;2.60;;;21.50;99.90;;;;;;4994954;28;20134;-38
2023/06/24 00:03:53;;;;;;;2.95;2.55;;;21.50;99.90;;;;;;4994431;28;20337;-37
2023/06/24 00:06:22;;;;;;;3.08;2.60;;;21.50;99.90;;;;;;4994094;28;20026;-35
2023/06/24 00:08:48;;;;;;;3.63;2.67;;;21.50;99.90;;;;;;4994272;28;20022;-38
2023/06/24 00:11:14;;;;;;;3.25;2.50;;;21.50;99.90;;;;;;4994180;28;20120;-35
2023/06/24 00:13:40;;;;;;;3.08;2.63;;;21.50;99.90;;;;;;4993080;28;20041;-36
2023/06/24 00:16:06;;;;;;;2.85;2.55;;;21.50;99.90;;;;;;4994473;28;20157;-38
2023/06/24 00:18:33;;;;;;;3.30;2.88;;;21.50;99.90;;;;;;4994173;28;20098;-38
2023/06/24 00:20:58;;;;;;;3.83;2.92;;;21.50;99.90;;;;;;4994032;28;20101;-39
2023/06/24 00:23:24;;;;;;;4.63;2.67;;;21.50;99.90;;;;;;4993979;28;20073;-37
2023/06/24 00:25:54;;;;;;;3.58;2.75;;;21.50;99.90;;;;;;4994187;28;20481;-38
2023/06/24 00:28:20;;;;;;;3.35;2.50;;;21.50;99.90;;;;;;4994481;28;20038;-37
2023/06/24 00:30:47;;;;;;;3.35;2.80;;;21.40;99.90;;;;;;4994102;28;20061;-38
2023/06/24 00:33:13;;;;;;;4.18;3.00;;;21.40;99.90;;;;;;4993799;28;20473;-37
2023/06/24 00:35:39;;;;;;;5.75;2.72;;;21.40;99.90;;;;;;4993992;28;20035;-38
2023/06/24 00:38:05;;;;;;;5.00;2.75;;;21.40;99.90;;;;;;4993763;28;20026;-36
2023/06/24 00:40:31;;;;;;;2.88;2.58;;;21.40;99.90;;;;;;4992617;28;20385;-37
2023/06/24 00:42:57;;;;;;;3.97;2.85;;;21.40;99.90;;;;;;4993681;28;20108;-37
2023/06/24 00:45:23;;;;;;;4.18;3.13;;;21.40;99.90;;;;;;4993417;28;20490;-38
2023/06/24 00:47:49;;;;;;;3.42;2.85;;;21.40;99.90;;;;;;4993556;28;20053;-35
2023/06/24 00:50:16;;;;;;;3.90;3.08;;;21.40;99.90;;;;;;4994245;28;20394;-38
2023/06/24 00:52:42;;;;;;;3.60;3.08;;;21.40;99.90;;;;;;4994702;28;20430;-38
2023/06/24 00:55:14;;;;;;;3.47;2.63;;;21.40;99.90;;;;;;4993795;28;20481;-37
2023/06/24 00:57:44;;;;;;;3.63;3.00;;;21.40;99.90;;;;;;4993754;28;20026;-38
2023/06/24 01:00:15;;;;;;;6.55;3.17;;;21.40;99.90;;;;;;4993506;28;20026;-36
2023/06/24 01:02:42;;;;;;;3.70;3.10;;;21.40;99.90;;;;;;4993952;28;20473;-38
2023/06/24 01:05:10;;;;;;;3.83;3.00;;;21.40;99.90;;;;;;4993008;28;20030;-37
2023/06/24 01:07:37;;;;;;;3.90;3.53;;;21.40;99.90;;;;;;4993155;28;20560;-37
2023/06/24 01:10:05;;;;;;;3.22;2.92;;;21.40;99.90;;;;;;4993092;28;20038;-36
2023/06/24 01:12:33;;;;;;;3.95;3.08;;;21.40;99.90;;;;;;4993162;28;20547;-36
2023/06/24 01:14:59;;;;;;;3.95;3.00;;;21.40;99.90;;;;;;4993331;28;20400;-38
2023/06/24 01:17:44;;;;;;;4.75;2.97;;;21.40;99.90;;;;;;4992850;28;20474;-37
2023/06/24 01:20:27;;;;;;;3.28;2.80;;;21.40;99.90;;;;;;4992936;28;20386;-37
2023/06/24 01:23:11;;;;;;;3.83;2.67;;;21.40;99.90;;;;;;4992830;28;20445;-38
2023/06/24 01:26:14;;;;;;;4.00;3.10;;;21.30;99.90;;;;;;4992414;28;20076;-38
2023/06/24 01:28:59;;;;;;;3.92;3.05;;;21.30;99.90;;;;;;4992776;28;20026;-40
2023/06/24 01:31:37;;;;;;;4.70;3.25;;;21.30;99.90;;;;;;4992753;28;20026;-37
2023/06/24 01:34:34;;;;;;;5.70;3.58;;;21.30;99.90;;;;;;4992857;28;20022;-39
2023/06/24 01:37:08;;;;;;;4.05;3.00;;;21.30;99.90;;;;;;4992903;28;20042;-39
2023/06/24 01:39:47;;;;;;;4.28;3.30;;;21.30;99.90;;;;;;4992776;28;20019;-38
2023/06/24 01:42:16;;;;;;;4.35;3.20;;;21.30;99.90;;;;;;4992524;28;20026;-36
2023/06/24 01:44:45;;;;;;;7.82;3.55;;;21.30;99.90;;;;;;4992440;28;20032;-40
2023/06/24 01:47:12;;;;;;;6.10;3.40;;;21.30;99.90;;;;;;4992814;28;20026;-38
2023/06/24 01:49:41;;;;;;;5.40;3.40;;;21.30;99.90;;;;;;4993066;28;20494;-38
2023/06/24 01:52:09;;;;;;;4.30;3.47;;;21.30;99.90;;;;;;4992549;28;20098;-38
2023/06/24 01:54:37;;;;;;;5.13;3.45;;;21.30;99.90;;;;;;4992727;28;20028;-36
2023/06/24 01:57:05;;;;;;;5.65;3.22;;;21.30;99.90;;;;;;4992016;28;20026;-38
2023/06/24 01:59:33;;;;;;;5.22;3.30;;;21.30;99.90;;;;;;4992199;28;20129;-38
2023/06/24 02:02:00;;;;;;;6.72;3.50;;;21.30;99.90;;;;;;4992046;28;20077;-40
2023/06/24 02:04:30;;;;;;;4.60;3.20;;;21.30;99.90;;;;;;4992178;28;20026;-36
2023/06/24 02:06:59;;;;;;;3.30;3.00;;;21.30;99.90;;;;;;4992067;28;20041;-40
2023/06/24 02:09:28;;;;;;;5.50;3.63;;;21.30;99.90;;;;;;4992128;28;20030;-38
2023/06/24 02:11:55;;;;;;;4.10;3.40;;;21.30;99.90;;;;;;5034269;23;20030;-37
2023/06/24 02:14:20;;;;;;;6.28;3.40;;;21.30;99.90;;;;;;4989966;28;20035;-35
2023/06/24 02:16:47;;;;;;;4.43;3.35;;;21.30;99.90;;;;;;4991627;28;20044;-35
2023/06/24 02:19:17;;;;;;;4.53;3.67;;;21.30;99.90;;;;;;4992456;28;20364;-35
2023/06/24 02:21:44;;;;;;;4.10;3.45;;;21.30;99.90;;;;;;4992931;28;20034;-35
2023/06/24 02:24:11;;;;;;;3.58;3.15;;;21.30;99.90;;;;;;4992141;28;20066;-36
2023/06/24 02:26:40;;;;;;;3.17;2.88;;;21.30;99.90;;;;;;4992109;28;20109;-35
2023/06/24 02:29:09;;;;;;;4.32;3.40;;;21.20;99.90;;;;;;4992272;28;20436;-37
2023/06/24 02:31:35;;;;;;;5.82;3.60;;;21.20;99.90;;;;;;4991872;28;20023;-35
2023/06/24 02:34:01;;;;;;;4.07;3.22;;;21.20;99.90;;;;;;4991916;28;20042;-36
2023/06/24 02:36:26;;;;;;;3.95;3.30;;;21.30;99.90;;;;;;4992849;28;20058;-35
2023/06/24 02:38:52;;;;;;;5.15;3.80;;;21.20;99.90;;;;;;4995950;28;20019;-37
2023/06/24 02:41:17;;;;;;;4.60;3.50;;;21.20;99.90;;;;;;4995799;28;20025;-35
2023/06/24 02:43:43;;;;;;;5.72;3.47;;;21.20;99.90;;;;;;4995818;28;20026;-35
2023/06/24 02:46:10;;;;;;;4.72;3.65;;;21.20;99.90;;;;;;4995546;28;20030;-37
2023/06/24 02:48:37;;;;;;;6.03;3.70;;;21.20;99.90;;;;;;4995768;28;20026;-35
2023/06/24 02:51:04;;;;;;;4.60;3.60;;;21.20;99.90;;;;;;4995712;28;20092;-35
2023/06/24 02:53:31;;;;;;;4.60;3.40;;;21.20;99.90;;;;;;4995576;28;20029;-36
2023/06/24 02:55:57;;;;;;;6.25;3.45;;;21.20;99.90;;;;;;4995469;28;20477;-35
2023/06/24 02:58:31;;;;;;;3.90;3.38;;;21.20;99.90;;;;;;4995656;28;20325;-37
2023/06/24 03:01:00;;;;;;;5.50;3.60;;;21.20;99.90;;;;;;4995931;28;20102;-36
2023/06/24 03:03:27;;;;;;;7.05;3.25;;;21.20;99.90;;;;;;4996056;28;20022;-35
2023/06/24 03:05:56;;;;;;;4.28;3.47;;;21.20;99.90;;;;;;4995440;28;20456;-36
2023/06/24 03:08:24;;;;;;;4.15;3.47;;;21.20;99.90;;;;;;4995743;28;20493;-35
2023/06/24 03:10:51;;;;;;;5.00;3.80;;;21.10;99.90;;;;;;4995905;28;20056;-36
2023/06/24 03:13:17;;;;;;;4.50;3.38;;;21.10;99.90;;;;;;4995734;28;20066;-35
2023/06/24 03:15:42;;;;;;;3.80;3.40;;;21.10;99.90;;;;;;4995401;28;20064;-35
2023/06/24 03:18:08;;;;;;;6.80;3.67;;;21.10;99.90;;;;;;4995430;28;20050;-36
2023/06/24 03:20:38;;;;;;;4.57;3.58;;;21.10;99.90;;;;;;4995480;28;20026;-35
2023/06/24 03:23:07;;;;;;;4.30;3.40;;;21.10;99.90;;;;;;4995262;28;20460;-36
2023/06/24 03:25:33;;;;;;;5.15;3.40;;;21.10;99.90;;;;;;4995370;28;20034;-35
2023/06/24 03:28:09;;;;;;;4.45;3.42;;;21.10;99.90;;;;;;4995468;28;20102;-36
2023/06/24 03:30:35;;;;;;;5.70;3.65;;;21.10;99.90;;;;;;4995512;28;20445;-35
2023/06/24 03:33:01;;;;;;;4.40;3.78;;;21.10;99.90;;;;;;4995211;28;20022;-36
2023/06/24 03:35:26;;;;;;;3.72;3.35;;;21.10;99.90;;;;;;4994785;28;20378;-37
2023/06/24 03:37:52;;;;;;;5.20;3.40;;;21.10;99.90;;;;;;4994870;28;20058;-37
2023/06/24 03:40:18;;;;;;;5.93;3.45;;;21.10;99.90;;;;;;4995143;28;20026;-35
2023/06/24 03:42:43;;;;;;;4.07;3.45;;;21.10;99.90;;;;;;4994987;28;20037;-35
2023/06/24 03:45:09;;;;;;;3.80;3.25;;;21.10;99.90;;;;;;4994897;28;20023;-35
2023/06/24 03:47:35;;;;;;;4.00;3.22;;;21.10;99.90;;;;;;4994967;28;20029;-34
2023/06/24 03:50:00;;;;;;;3.83;3.13;;;21.10;99.90;;;;;;4994578;28;20121;-35
2023/06/24 03:52:26;;;;;;;3.67;3.22;;;21.10;99.90;;;;;;4994606;28;20034;-36
2023/06/24 03:54:53;;;;;;;3.55;3.15;;;21.10;99.90;;;;;;4994698;28;20029;-36
2023/06/24 03:57:18;;;;;;;4.53;3.40;;;21.10;99.90;;;;;;4994411;28;20018;-35
2023/06/24 03:59:44;;;;;;;4.43;3.30;;;21.10;99.90;;;;;;4994476;28;20104;-35
2023/06/24 04:02:10;;;;;;;7.60;3.95;;;21.10;99.90;;;;;;4994431;28;20026;-36
2023/06/24 04:04:36;;;;;;;3.50;3.20;;;21.10;99.90;;;;;;4994300;28;20058;-36
2023/06/24 04:07:01;;;;;;;3.90;3.17;;;21.10;99.90;;;;;;4994192;28;20096;-36
2023/06/24 04:09:29;;;;;;;6.80;3.53;;;21.10;99.90;;;;;;4994305;28;20038;-35
2023/06/24 04:11:54;;;;;;;4.65;3.50;;;21.10;99.90;;;;;;4994114;28;20101;-35
2023/06/24 04:14:20;;;;;;;5.18;3.90;;;21.10;99.90;;;;;;4994192;28;20113;-36
2023/06/24 04:16:46;;;;;;;3.80;3.05;;;21.10;99.90;;;;;;4993950;28;20109;-35
2023/06/24 04:19:11;;;;;;;4.90;3.58;;;21.00;99.90;;;;;;4994030;28;20393;-35
2023/06/24 04:21:37;;;;;;;3.80;3.15;;;21.00;99.90;;;;;;4994097;28;20030;-35
2023/06/24 04:24:03;;;;;;;4.38;3.30;;;21.00;99.90;;;;;;4993913;28;20433;-35
2023/06/24 04:26:30;;;;;;;5.40;3.90;;;21.10;99.90;;;;;;4994066;28;20034;-36
2023/06/24 04:28:55;;;;;;;4.10;3.63;;;21.00;99.90;;;;;;4994391;28;20037;-36
2023/06/24 04:31:21;;;;;;;3.83;3.40;;;21.00;99.90;;;;;;4993922;28;20030;-36
2023/06/24 04:33:47;;;;;;;4.30;3.53;;;21.00;99.90;;;;;;4993739;28;20527;-36
2023/06/24 04:36:12;;;;;;;6.55;3.85;;;21.00;99.90;;;;;;4993584;28;20536;-36
2023/06/24 04:38:38;;;;;;;3.65;3.20;;;21.00;99.90;;;;;;4993777;28;20030;-35
2023/06/24 04:41:03;;;;;;;4.53;3.17;;;21.00;99.90;;;;;;4993728;28;20105;-36
2023/06/24 04:43:29;;;;;;;3.92;3.45;;;21.00;99.90;;;;;;4993635;28;20109;-37
2023/06/24 04:45:55;;;;;;;4.63;3.72;;;21.00;99.90;;;;;;4993445;28;20030;-35
2023/06/24 04:48:23;;;;;;;4.05;3.50;;;21.00;99.90;;;;;;4993531;28;20034;-35
2023/06/24 04:50:49;;;;;;;5.22;3.50;;;21.00;99.90;;;;;;4993539;28;20035;-35
2023/06/24 04:53:14;;;;;;;4.00;2.88;;;21.00;99.90;;;;;;4993431;28;20036;-35
2023/06/24 04:55:40;;;;;;;4.18;3.00;;;21.00;99.90;;;;;;4993190;28;20729;-35
2023/06/24 04:58:06;;;;;;;3.58;3.20;;;21.00;99.90;;;;;;4992181;28;20121;-37
2023/06/24 05:00:31;;;;;;;4.20;3.20;;;21.00;99.90;;;;;;4992863;28;20030;-37
2023/06/24 05:02:57;;;;;;;6.60;3.30;;;21.00;99.90;;;;;;4993096;28;20033;-37
2023/06/24 05:05:23;;;;;;;3.60;3.20;;;21.00;99.90;;;;;;4993211;28;20405;-36
2023/06/24 05:07:48;;;;;;;4.07;3.22;;;21.00;99.90;;;;;;4993200;28;20022;-37
2023/06/24 05:10:14;;;;;;;4.72;3.42;;;21.00;99.90;;;;;;4993157;28;20449;-35
2023/06/24 05:12:40;;;;;;;4.65;3.72;;;21.00;99.90;;;;;;4992932;28;20290;-35
2023/06/24 05:15:07;;;;;;;4.05;3.08;;;21.00;99.90;;;;;;4992835;28;20378;-35
2023/06/24 05:17:33;;;;;;;3.67;3.20;;;21.00;99.90;;;;;;4993282;28;20034;-37
2023/06/24 05:19:58;;;;;;;4.25;3.40;;;21.00;99.90;;;;;;4992944;28;20049;-35
2023/06/24 05:22:24;;;;;;;5.03;3.22;;;21.00;99.90;;;;;;4993022;28;20092;-35
2023/06/24 05:24:49;;;;;;;3.42;2.90;;;21.00;99.90;;;;;;4992866;28;20030;-35
2023/06/24 05:27:15;;;;;;;4.38;3.42;;;21.00;99.90;;;;;;4993067;28;20109;-37
2023/06/24 05:29:41;;;;;;;4.85;3.58;;;21.00;99.90;;;;;;4993015;28;20061;-36
2023/06/24 05:32:07;;;;;;;3.97;3.35;;;21.00;99.90;;;;;;4992836;28;20034;-35
2023/06/24 05:34:33;;;;;;;3.40;3.03;;;21.00;99.90;;;;;;4993287;28;20785;-37
2023/06/24 05:36:59;;;;;;;3.30;3.00;;;21.00;99.90;;;;;;4992643;28;20030;-37
2023/06/24 05:39:25;;;;;;;5.45;3.20;;;21.00;99.90;;;;;;4992651;28;20104;-35
2023/06/24 05:41:50;;;;;;;6.07;3.33;;;21.00;99.90;;;;;;4992607;28;20026;-34
2023/06/24 05:44:17;;;;;;;3.90;3.20;;;21.00;99.90;;;;;;4992798;28;20022;-35
2023/06/24 05:46:44;;;;;;;3.63;3.05;;;21.00;99.90;;;;;;4992602;28;20033;-35
2023/06/24 05:49:10;;;;;;;4.25;3.30;;;21.00;99.90;;;;;;4992827;28;20093;-35
2023/06/24 05:51:35;;;;;;;4.60;3.30;;;21.00;99.90;;;;;;4992745;28;20500;-34
2023/06/24 05:54:01;;;;;;;3.35;2.83;;;21.00;99.90;;;;;;4992594;28;20038;-35
2023/06/24 05:56:26;;;;;;;3.63;3.25;;;21.00;99.90;;;;;;4992256;28;20408;-36
2023/06/24 05:58:52;;;;;;;4.40;2.97;;;21.00;99.90;;;;;;4992725;28;20106;-38
2023/06/24 06:01:18;;;;;;;3.88;2.90;;;21.00;99.90;;;;;;4992500;28;20516;-35
2023/06/24 06:03:43;;;;;;;3.28;2.88;;;21.00;99.90;;;;;;4991371;28;20495;-35
2023/06/24 06:06:09;;;;;;;3.75;3.03;;;21.00;99.90;;;;;;4992163;28;20014;-37
2023/06/24 06:08:35;;;;;;;3.28;2.70;;;21.00;99.90;;;;;;4992337;28;20444;-37
2023/06/24 06:11:04;;;;;;;3.60;2.80;;;21.00;99.90;;;;;;4991335;28;20109;-35
2023/06/24 06:13:30;;;;;;;3.35;2.67;;;21.00;99.90;;;;;;4992570;28;20031;-35
2023/06/24 06:15:56;;;;;;;4.20;3.20;;;21.00;99.90;;;;;;4992219;28;20036;-36
2023/06/24 06:18:22;;;;;;;3.75;2.80;;;21.00;99.90;;;;;;4992612;28;20022;-36
2023/06/24 06:20:47;;;;;;;3.58;3.10;;;21.00;99.90;;;;;;4992570;28;20031;-35
2023/06/24 06:23:13;;;;;;;3.50;2.83;;;21.00;99.90;;;;;;4992332;28;20041;-36
2023/06/24 06:25:39;;;;;;;4.72;3.00;;;21.00;99.90;;;;;;4992048;28;20030;-34
2023/06/24 06:28:05;;;;;;;3.13;2.83;;;21.00;99.90;;;;;;4992394;28;20026;-35
2023/06/24 06:30:30;;;;;;;5.30;3.30;;;21.00;99.90;;;;;;4992256;28;20093;-35
2023/06/24 06:32:56;;;;;;;5.80;3.30;;;21.10;99.90;;;;;;4992552;28;20038;-36
2023/06/24 06:35:22;;;;;;;3.38;2.78;;;21.00;99.90;;;;;;4992212;28;20034;-38
2023/06/24 06:37:52;;;;;;;4.00;3.10;;;21.00;99.90;;;;;;4992358;28;20030;-36
2023/06/24 06:40:21;;;;;;;4.35;3.47;;;21.00;99.90;;;;;;4991819;28;20397;-35
2023/06/24 06:42:47;;;;;;;3.90;2.80;;;21.00;99.90;;;;;;4992370;28;20504;-35
2023/06/24 06:45:12;;;;;;;3.72;3.28;;;21.10;99.90;;;;;;4992526;28;20035;-35
2023/06/24 06:47:38;;;;;;;3.75;2.88;;;21.10;99.90;;;;;;4991979;28;20034;-36
2023/06/24 06:50:04;;;;;;;3.95;2.90;;;21.10;99.90;;;;;;4991913;28;20029;-35
2023/06/24 06:52:30;;;;;;;4.85;3.33;;;21.10;99.90;;;;;;4992053;28;20026;-35
2023/06/24 06:54:56;;;;;;;3.88;3.10;;;21.10;99.90;;;;;;4991684;28;20128;-35
2023/06/24 06:57:22;;;;;;;3.83;2.90;;;21.00;99.90;;;;;;4991722;28;20568;-35
2023/06/24 06:59:50;;;;;;;5.05;3.03;;;21.10;99.90;;;;;;4991939;28;20179;-36
2023/06/24 07:02:16;;;;;;;3.63;2.67;;;21.10;99.90;;;;;;4991685;28;20511;-36
2023/06/24 07:04:42;;;;;;;4.07;2.85;;;21.10;99.90;;;;;;4991706;28;20058;-35
2023/06/24 07:07:08;;;;;;;3.70;3.10;;;21.10;99.90;;;;;;4991809;28;20026;-37
2023/06/24 07:09:34;;;;;;;3.85;2.97;;;21.10;99.90;;;;;;4991656;28;20046;-35
2023/06/24 07:12:00;;;;;;;4.82;3.08;;;21.10;99.90;;;;;;4991285;28;20115;-36
2023/06/24 07:14:25;;;;;;;5.07;3.10;;;21.10;99.90;;;;;;4991512;28;20489;-35
2023/06/24 07:16:51;;;;;;;3.45;2.60;;;21.10;99.90;;;;;;4991847;28;20092;-35
2023/06/24 07:19:17;;;;;;;3.25;2.55;;;21.10;99.90;;;;;;4991457;28;20031;-35
2023/06/24 07:21:43;;;;;;;3.28;2.95;;;21.10;99.90;;;;;;4990237;28;20050;-36
2023/06/24 07:24:08;;;;;;;3.10;2.80;;;21.10;99.90;;;;;;4995499;28;20019;-35
2023/06/24 07:26:34;;;;;;;4.80;3.25;;;21.10;99.90;;;;;;4994729;28;20497;-36
2023/06/24 07:29:00;;;;;;;4.03;3.05;;;21.10;99.90;;;;;;4995082;28;20022;-36
2023/06/24 07:31:25;;;;;;;3.33;2.80;;;21.10;99.90;;;;;;4995052;28;20081;-36
2023/06/24 07:33:51;;;;;;;3.58;2.80;;;21.10;99.90;;;;;;4994908;28;20025;-35
2023/06/24 07:36:17;;;;;;;3.15;2.70;;;21.10;99.90;;;;;;4994691;28;20106;-36
2023/06/24 07:38:42;;;;;;;3.33;2.63;;;21.10;99.90;;;;;;4995252;28;20033;-37
2023/06/24 07:41:08;;;;;;;3.30;2.70;;;21.10;99.90;;;;;;4994708;28;20030;-35
2023/06/24 07:43:34;;;;;;;3.10;2.50;;;21.10;99.90;;;;;;4994881;28;20022;-34
2023/06/24 07:45:59;;;;;;;2.92;2.50;;;21.10;99.90;;;;;;4994609;28;20053;-35
2023/06/24 07:48:25;;;;;;;3.55;3.00;;;21.20;99.90;;;;;;4994950;28;20061;-35
2023/06/24 07:50:51;;;;;;;2.97;2.50;;;21.10;99.90;;;;;;4995180;28;20113;-37
2023/06/24 07:53:16;;;;;;;3.60;2.85;;;21.20;99.90;;;;;;4994579;28;20030;-35
2023/06/24 07:55:42;;;;;;;2.97;2.67;;;21.10;99.90;;;;;;4994851;28;20030;-35
2023/06/24 07:58:07;;;;;;;3.50;2.85;;;21.10;99.90;;;;;;4994673;28;20033;-34
2023/06/24 08:00:33;;;;;;;3.60;2.90;;;21.20;99.90;;;;;;4995059;28;20019;-36
2023/06/24 08:02:59;;;;;;;3.22;2.70;;;21.20;99.90;;;;;;4994552;28;20018;-35
2023/06/24 08:05:26;;;;;;;2.92;2.33;;;21.20;99.90;;;;;;4994975;28;20536;-36
2023/06/24 08:07:52;;;;;;;2.67;2.47;;;21.10;99.90;;;;;;4994683;28;20401;-38
2023/06/24 08:10:17;;;;;;;2.88;2.58;;;21.10;99.90;;;;;;4994204;28;20030;-35
2023/06/24 08:12:43;;;;;;;3.45;2.50;;;21.20;99.90;;;;;;4994654;28;20349;-36
2023/06/24 08:15:09;;;;;;;2.45;2.17;;;21.20;99.90;;;;;;4994232;28;20022;-36
2023/06/24 08:17:35;;;;;;;3.60;2.47;;;21.10;99.90;;;;;;4994427;28;20100;-37
2023/06/24 08:20:02;;;;;;;2.83;2.50;;;21.20;99.90;;;;;;4994220;28;20022;-37
2023/06/24 08:22:28;;;;;;;2.67;2.40;;;21.20;99.90;;;;;;4994840;28;20110;-37
2023/06/24 08:24:54;;;;;;;2.85;2.40;;;21.20;99.90;;;;;;4994211;28;20026;-36
2023/06/24 08:27:19;;;;;;;3.13;2.53;;;21.20;99.90;;;;;;4994710;28;20042;-36
2023/06/24 08:29:45;;;;;;;2.97;2.63;;;21.20;99.90;;;;;;4993939;28;20030;-36
2023/06/24 08:32:11;;;;;;;2.53;2.33;;;21.20;99.90;;;;;;4993848;28;20085;-38
2023/06/24 08:34:36;;;;;;;3.20;2.65;;;21.20;99.90;;;;;;4992963;28;20407;-38
2023/06/24 08:37:02;;;;;;;2.72;2.20;;;21.20;99.90;;;;;;4993524;28;20160;-36
2023/06/24 08:39:29;;;;;;;2.95;2.65;;;21.20;99.90;;;;;;4994319;28;20026;-35
2023/06/24 08:41:54;;;;;;;2.65;2.45;;;21.20;99.90;;;;;;4993801;28;20029;-34
2023/06/24 08:44:20;;;;;;;2.88;2.38;;;21.20;99.90;;;;;;4993703;28;20018;-35
2023/06/24 08:46:47;;;;;;;2.83;2.35;;;21.20;99.90;;;;;;4993498;28;20138;-35
2023/06/24 08:49:28;;;;;;;3.22;2.28;;;21.20;99.90;;;;;;4993730;28;20034;-36
2023/06/24 08:52:10;;;;;;;2.83;2.42;;;21.20;99.90;;;;;;4993360;28;20033;-35
2023/06/24 08:54:38;;;;;;;2.58;2.38;;;21.20;99.90;;;;;;4993752;28;20034;-36
2023/06/24 08:57:10;;;;;;;2.40;2.20;;;21.20;99.90;;;;;;4993577;28;20056;-36
2023/06/24 08:59:37;;;;;;;2.63;2.30;;;21.20;99.90;;;;;;4993450;28;20037;-36
2023/06/24 09:02:03;;;;;;;2.60;2.30;;;21.30;99.90;;;;;;4993319;28;20023;-35
2023/06/24 09:04:29;;;;;;;2.55;2.35;;;21.30;99.90;;;;;;4993280;28;20026;-35
2023/06/24 09:06:55;;;;;;;2.78;2.35;;;21.30;99.90;;;;;;4993265;28;20084;-35
2023/06/24 09:09:24;;;;;;;2.95;2.40;;;21.30;99.90;;;;;;4993248;28;20038;-36
2023/06/24 09:11:55;;;;;;;2.72;2.28;;;21.20;99.90;;;;;;4993073;28;20037;-34
2023/06/24 09:14:22;;;;;;;3.22;2.40;;;21.30;99.90;;;;;;4993588;28;20038;-36
2023/06/24 09:16:58;;;;;;;3.00;2.50;;;21.30;99.90;;;;;;4992780;28;20461;-35
2023/06/24 09:19:29;;;;;;;2.95;2.40;;;21.30;99.90;;;;;;4992979;28;20019;-35
2023/06/24 09:22:04;;;;;;;3.25;2.50;;;21.30;99.90;;;;;;4993016;28;20441;-35
2023/06/24 09:24:33;;;;;;;4.60;2.47;;;21.30;99.90;;;;;;4992937;28;20018;-35
2023/06/24 09:27:00;;;;;;;3.00;2.40;;;21.30;99.90;;;;;;4991508;28;20034;-36
2023/06/24 09:29:32;;;;;;;3.03;2.50;;;21.30;99.90;;;;;;4992716;28;20034;-35
2023/06/24 09:31:59;;;;;;;2.83;2.40;;;21.30;99.90;;;;;;4992974;28;20054;-35
2023/06/24 09:34:26;;;;;;;3.22;2.38;;;21.30;99.90;;;;;;4992687;28;20101;-35
2023/06/24 09:36:53;;;;;;;2.50;2.20;;;21.30;99.90;;;;;;4992414;28;20064;-36
2023/06/24 09:39:28;;;;;;;2.20;2.00;;;21.30;99.90;;;;;;4992710;28;20026;-35
2023/06/24 09:41:54;;;;;;;2.25;2.05;;;21.30;99.90;;;;;;4991153;28;20026;-35
2023/06/24 09:44:19;;;;;;;2.28;1.92;;;21.30;99.90;;;;;;4992763;28;20026;-35
2023/06/24 09:46:46;;;;;;;3.30;2.05;;;21.30;99.90;;;;;;4992196;28;20025;-35
2023/06/24 09:49:12;;;;;;;3.08;1.90;;;21.30;99.90;;;;;;4991231;28;20022;-34
2023/06/24 09:51:39;;;;;;;2.38;2.17;;;21.30;99.90;;;;;;4992609;28;20026;-35
2023/06/24 09:54:09;;;;;;;2.83;2.20;;;21.30;99.90;;;;;;4992343;28;20095;-35
2023/06/24 09:56:39;;;;;;;2.42;1.90;;;21.30;99.90;;;;;;4991992;28;20477;-35
2023/06/24 09:59:05;;;;;;;2.17;1.73;;;21.40;99.90;;;;;;4991076;28;20026;-35
2023/06/24 10:01:38;;;;;;;2.80;2.40;;;21.40;99.90;;;;;;4992358;28;20455;-35
2023/06/24 10:04:05;;;;;;;2.75;2.28;;;21.40;99.90;;;;;;4992271;28;20501;-36
2023/06/24 10:06:34;;;;;;;2.58;2.10;;;21.30;99.90;;;;;;4991955;28;20061;-35
2023/06/24 10:09:01;;;;;;;2.40;1.92;;;21.40;99.90;;;;;;4992193;28;20022;-36
2023/06/24 10:11:27;;;;;;;2.85;2.10;;;21.40;99.90;;;;;;4992050;28;20030;-35
2023/06/24 10:13:53;;;;;;;2.47;2.20;;;21.30;99.90;;;;;;4991991;28;20041;-35
2023/06/24 10:16:19;;;;;;;2.17;1.90;;;21.40;99.90;;;;;;4992081;28;20030;-37
2023/06/24 10:18:45;;;;;;;2.20;2.00;;;21.40;99.90;;;;;;4992077;28;20033;-37
2023/06/24 10:21:12;;;;;;;2.40;2.20;;;21.40;99.90;;;;;;4992061;28;20490;-37
2023/06/24 10:23:41;;;;;;;2.88;2.35;;;21.40;99.90;;;;;;4991834;28;20038;-35
2023/06/24 10:26:22;;;;;;;2.65;2.10;;;21.40;99.90;;;;;;4991770;28;20026;-37
2023/06/24 10:29:06;;;;;;;2.15;1.95;;;21.40;99.90;;;;;;4991965;28;20397;-37
2023/06/24 10:31:52;;;;;;;2.45;2.13;;;21.40;99.90;;;;;;4991909;28;20048;-37
2023/06/24 10:34:32;;;;;;;3.08;2.00;;;21.40;99.90;;;;;;4992060;28;20058;-37
2023/06/24 10:37:09;;;;;;;3.13;2.20;;;21.40;99.90;;;;;;4991670;28;20030;-37
2023/06/24 10:39:39;;;;;;;1.90;1.70;;;21.40;99.90;;;;;;4991958;28;20033;-36
2023/06/24 10:42:23;;;;;;;2.53;2.30;;;21.40;99.90;;;;;;4991776;28;20482;-36
2023/06/24 10:44:49;;;;;;;2.45;2.08;;;21.40;99.90;;;;;;4991714;28;20023;-37
2023/06/24 10:47:15;;;;;;;2.85;2.40;;;21.40;99.90;;;;;;4991827;28;20110;-36
2023/06/24 10:49:41;;;;;;;2.63;2.28;;;21.40;99.90;;;;;;4991746;28;20026;-37
2023/06/24 10:52:13;;;;;;;2.30;1.98;;;21.40;99.90;;;;;;4991692;28;20493;-37
2023/06/24 10:54:40;;;;;;;2.53;2.20;;;21.40;99.90;;;;;;4991705;28;20058;-36
2023/06/24 10:57:07;;;;;;;2.55;2.13;;;21.40;99.90;;;;;;4992103;28;20441;-35
2023/06/24 10:59:56;;;;;;;2.95;2.35;;;21.40;99.90;;;;;;4995692;28;20026;-36
2023/06/24 11:02:26;;;;;;;2.90;2.30;;;21.50;99.90;;;;;;4995133;28;20624;-35
2023/06/24 11:04:53;;;;;;;2.33;1.90;;;21.40;99.90;;;;;;4995321;28;20397;-35
2023/06/24 11:07:20;;;;;;;2.33;2.03;;;21.40;99.90;;;;;;4995468;28;20052;-35
2023/06/24 11:09:56;;;;;;;2.00;1.73;;;21.50;99.90;;;;;;4995411;28;20030;-35
2023/06/24 11:12:26;;;;;;;2.40;1.92;;;21.40;99.90;;;;;;4995655;28;20392;-35
2023/06/24 11:14:59;;;;;;;2.35;2.10;;;21.40;99.90;;;;;;4995317;28;20362;-35
2023/06/24 11:17:25;;;;;;;2.60;2.30;;;21.50;99.90;;;;;;4995252;28;20054;-35
2023/06/24 11:19:55;;;;;;;2.20;1.90;;;21.40;99.90;;;;;;4995200;28;20355;-36
2023/06/24 11:22:22;;;;;;;3.05;2.08;;;21.50;99.90;;;;;;4995123;28;20030;-35
2023/06/24 11:24:48;;;;;;;2.25;2.00;;;21.50;99.90;;;;;;4994965;28;20081;-37
2023/06/24 11:27:13;;;;;;;2.30;2.10;;;21.50;99.90;;;;;;4995107;28;20038;-36
2023/06/24 11:29:39;;;;;;;3.05;1.83;;;21.40;99.90;;;;;;4995067;28;20040;-34
2023/06/24 11:32:08;;;;;;;2.53;1.80;;;21.40;99.90;;;;;;4993637;28;20023;-37
2023/06/24 11:34:37;;;;;;;2.25;2.00;;;21.40;99.90;;;;;;4994872;28;20505;-35
2023/06/24 11:37:13;;;;;;;2.83;2.17;;;21.50;99.90;;;;;;4993699;28;20031;-35
2023/06/24 11:39:39;;;;;;;3.10;2.47;;;21.50;99.90;;;;;;4994976;28;20034;-35
2023/06/24 11:42:08;;;;;;;2.10;1.90;;;21.50;99.90;;;;;;4994810;28;20538;-36
2023/06/24 11:44:34;;;;;;;2.40;1.90;;;21.50;99.90;;;;;;4994814;28;20030;-35
2023/06/24 11:47:08;;;;;;;3.45;2.10;;;21.50;99.90;;;;;;4994469;28;20026;-35
2023/06/24 11:49:54;;;;;;;2.33;2.00;;;21.50;99.90;;;;;;4993524;28;20485;-35
2023/06/24 11:52:51;;;;;;;2.50;2.10;;;21.50;99.90;;;;;;4994665;28;20058;-35
2023/06/24 11:55:21;;;;;;;2.53;2.17;;;21.50;99.90;;;;;;4994339;28;20093;-35
2023/06/24 11:57:48;;;;;;;2.92;2.17;;;21.50;99.90;;;;;;4994494;28;20037;-36
2023/06/24 12:00:14;;;;;;;2.35;1.88;;;21.50;99.90;;;;;;4994566;28;20031;-35
2023/06/24 12:02:40;;;;;;;3.78;2.08;;;21.50;99.90;;;;;;4993295;28;20105;-36
2023/06/24 12:05:06;;;;;;;2.40;2.10;;;21.50;99.90;;;;;;4994273;28;20114;-35
2023/06/24 12:07:31;;;;;;;2.15;1.95;;;21.50;99.90;;;;;;4994481;28;20026;-36
2023/06/24 12:09:57;;;;;;;2.40;1.95;;;21.50;99.90;;;;;;4993006;28;20033;-35
2023/06/24 12:12:23;;;;;;;3.22;1.90;;;21.50;99.90;;;;;;4994132;28;20503;-35
2023/06/24 12:14:48;;;;;;;3.00;2.17;;;21.50;99.90;;;;;;4994091;28;20088;-37
2023/06/24 12:17:14;;;;;;;2.30;2.08;;;21.50;99.90;;;;;;4994380;28;20037;-37
2023/06/24 12:19:39;;;;;;;2.22;1.80;;;21.50;99.90;;;;;;4994236;28;20026;-36
2023/06/24 12:22:05;;;;;;;2.15;1.83;;;21.50;99.90;;;;;;4994187;28;20544;-34
2023/06/24 12:24:31;;;;;;;2.03;1.80;;;21.50;99.90;;;;;;4993986;28;20111;-35
2023/06/24 12:26:56;;;;;;;2.58;2.10;;;21.50;99.90;;;;;;4993939;28;20033;-36
2023/06/24 12:29:22;;;;;;;2.80;2.15;;;21.50;99.90;;;;;;4994008;28;20032;-37
2023/06/24 12:31:47;;;;;;;2.17;1.77;;;21.50;99.90;;;;;;4993899;28;20509;-35
2023/06/24 12:34:13;;;;;;;2.58;2.10;;;21.50;99.90;;;;;;4993928;28;20036;-36
2023/06/24 12:36:39;;;;;;;2.60;2.00;;;21.50;99.90;;;;;;4993590;28;20363;-36
2023/06/24 12:39:04;;;;;;;3.03;2.03;;;21.50;99.90;;;;;;4993692;28;20026;-35
2023/06/24 12:41:30;;;;;;;3.15;2.22;;;21.50;99.90;;;;;;4993753;28;20061;-35
2023/06/24 12:43:55;;;;;;;2.38;1.95;;;21.60;99.90;;;;;;4993613;28;20022;-35
2023/06/24 12:46:21;;;;;;;2.38;2.17;;;21.60;99.90;;;;;;4993368;28;20026;-36
2023/06/24 12:48:47;;;;;;;2.28;2.08;;;21.60;99.90;;;;;;4993616;28;20026;-35
2023/06/24 12:51:12;;;;;;;2.42;1.90;;;21.50;99.90;;;;;;4993573;28;20026;-35